sensor_id;sensor_type;location;lat;lon;timestamp;pressure;altitude;pressure_sealevel;temperature;humidity
9261;BME280;4667;42.726;23.252;2023-02-17T00:00:17;96152.13;;;2.72;nan
9261;BME280;4667;42.726;23.252;2023-02-17T00:02:44;96153.38;;;2.66;nan
9261;BME280;4667;42.726;23.252;2023-02-17T00:05:14;96155.09;;;2.71;nan
9261;BME280;4667;42.726;23.252;2023-02-17T00:07:42;96147.56;;;2.73;nan
9261;BME280;4667;42.726;23.252;2023-02-17T00:10:09;96154.94;;;2.50;nan
9261;BME280;4667;42.726;23.252;2023-02-17T00:12:36;96151.66;;;2.62;nan
9261;BME280;4667;42.726;23.252;2023-02-17T00:15:09;96145.81;;;2.60;nan
9261;BME280;4667;42.726;23.252;2023-02-17T00:17:36;96143.13;;;2.51;nan
9261;BME280;4667;42.726;23.252;2023-02-17T00:20:08;96151.31;;;2.55;nan
9261;BME280;4667;42.726;23.252;2023-02-17T00:22:37;96141.56;;;2.59;nan
9261;BME280;4667;42.726;23.252;2023-02-17T00:25:05;96135.75;;;2.65;nan
9261;BME280;4667;42.726;23.252;2023-02-17T00:27:34;96132.78;;;2.67;nan
9261;BME280;4667;42.726;23.252;2023-02-17T00:30:04;96126.16;;;2.64;nan
9261;BME280;4667;42.726;23.252;2023-02-17T00:32:39;96122.53;;;2.69;nan
9261;BME280;4667;42.726;23.252;2023-02-17T00:35:09;96119.56;;;2.79;nan
9261;BME280;4667;42.726;23.252;2023-02-17T00:37:39;96119.25;;;2.72;nan
9261;BME280;4667;42.726;23.252;2023-02-17T00:40:10;96113.09;;;2.88;nan
9261;BME280;4667;42.726;23.252;2023-02-17T00:42:48;96118.59;;;2.92;nan
9261;BME280;4667;42.726;23.252;2023-02-17T00:45:19;96129.47;;;2.96;nan
9261;BME280;4667;42.726;23.252;2023-02-17T00:47:52;96137.81;;;3.03;nan
9261;BME280;4667;42.726;23.252;2023-02-17T00:50:26;96135.28;;;2.89;nan
9261;BME280;4667;42.726;23.252;2023-02-17T00:52:53;96130.72;;;2.90;nan
9261;BME280;4667;42.726;23.252;2023-02-17T00:55:20;96137.97;;;2.89;nan
9261;BME280;4667;42.726;23.252;2023-02-17T00:57:48;96135.91;;;2.69;nan
9261;BME280;4667;42.726;23.252;2023-02-17T01:00:17;96124.69;;;2.24;nan
9261;BME280;4667;42.726;23.252;2023-02-17T01:02:44;96125.53;;;2.59;nan
9261;BME280;4667;42.726;23.252;2023-02-17T01:05:15;96120.00;;;2.46;nan
9261;BME280;4667;42.726;23.252;2023-02-17T01:07:44;96111.66;;;2.48;nan
9261;BME280;4667;42.726;23.252;2023-02-17T01:10:11;96116.34;;;2.34;nan
9261;BME280;4667;42.726;23.252;2023-02-17T01:12:39;96123.16;;;2.49;nan
9261;BME280;4667;42.726;23.252;2023-02-17T01:15:07;96126.94;;;2.47;nan
9261;BME280;4667;42.726;23.252;2023-02-17T01:17:34;96117.97;;;2.43;nan
9261;BME280;4667;42.726;23.252;2023-02-17T01:20:01;96111.81;;;2.26;nan
9261;BME280;4667;42.726;23.252;2023-02-17T01:22:30;96109.44;;;2.33;nan
9261;BME280;4667;42.726;23.252;2023-02-17T01:24:57;96103.94;;;2.29;nan
9261;BME280;4667;42.726;23.252;2023-02-17T01:27:24;96100.78;;;2.27;nan
9261;BME280;4667;42.726;23.252;2023-02-17T01:29:51;96103.44;;;2.19;nan
9261;BME280;4667;42.726;23.252;2023-02-17T01:32:17;96103.25;;;2.15;nan
9261;BME280;4667;42.726;23.252;2023-02-17T01:34:44;96109.75;;;2.14;nan
9261;BME280;4667;42.726;23.252;2023-02-17T01:37:13;96102.97;;;2.17;nan
9261;BME280;4667;42.726;23.252;2023-02-17T01:39:41;96109.22;;;2.03;nan
9261;BME280;4667;42.726;23.252;2023-02-17T01:42:13;96110.03;;;2.13;nan
9261;BME280;4667;42.726;23.252;2023-02-17T01:47:40;96109.84;;;2.09;nan
9261;BME280;4667;42.726;23.252;2023-02-17T01:50:07;96117.25;;;2.12;nan
9261;BME280;4667;42.726;23.252;2023-02-17T01:52:35;96106.72;;;2.07;nan
9261;BME280;4667;42.726;23.252;2023-02-17T01:55:07;96107.19;;;2.09;nan
9261;BME280;4667;42.726;23.252;2023-02-17T01:57:37;96101.56;;;2.19;nan
9261;BME280;4667;42.726;23.252;2023-02-17T02:00:07;96087.13;;;2.20;nan
9261;BME280;4667;42.726;23.252;2023-02-17T02:02:36;96099.38;;;2.30;nan
9261;BME280;4667;42.726;23.252;2023-02-17T02:05:03;96090.41;;;2.26;nan
9261;BME280;4667;42.726;23.252;2023-02-17T02:07:32;96101.53;;;2.02;nan
9261;BME280;4667;42.726;23.252;2023-02-17T02:10:00;96096.78;;;1.99;nan
9261;BME280;4667;42.726;23.252;2023-02-17T02:12:30;96094.56;;;1.84;nan
9261;BME280;4667;42.726;23.252;2023-02-17T02:15:00;96093.47;;;1.93;nan
9261;BME280;4667;42.726;23.252;2023-02-17T02:17:36;96087.53;;;1.96;nan
9261;BME280;4667;42.726;23.252;2023-02-17T02:20:32;96095.50;;;1.88;nan
9261;BME280;4667;42.726;23.252;2023-02-17T02:29:25;96085.00;;;2.00;nan
9261;BME280;4667;42.726;23.252;2023-02-17T02:32:05;96079.84;;;2.21;nan
9261;BME280;4667;42.726;23.252;2023-02-17T02:34:44;96081.78;;;2.37;nan
9261;BME280;4667;42.726;23.252;2023-02-17T02:37:13;96084.44;;;2.46;nan
9261;BME280;4667;42.726;23.252;2023-02-17T02:39:47;96076.78;;;2.62;nan
9261;BME280;4667;42.726;23.252;2023-02-17T02:42:16;96089.66;;;2.77;nan
9261;BME280;4667;42.726;23.252;2023-02-17T02:44:45;96092.00;;;2.96;nan
9261;BME280;4667;42.726;23.252;2023-02-17T02:47:41;96093.09;;;3.03;nan
9261;BME280;4667;42.726;23.252;2023-02-17T02:50:12;96086.34;;;2.97;nan
9261;BME280;4667;42.726;23.252;2023-02-17T02:52:50;96093.56;;;3.05;nan
9261;BME280;4667;42.726;23.252;2023-02-17T02:55:29;96093.28;;;2.90;nan
9261;BME280;4667;42.726;23.252;2023-02-17T02:58:04;96097.06;;;2.80;nan
9261;BME280;4667;42.726;23.252;2023-02-17T03:00:37;96094.84;;;2.82;nan
9261;BME280;4667;42.726;23.252;2023-02-17T03:03:09;96092.78;;;3.05;nan
9261;BME280;4667;42.726;23.252;2023-02-17T03:05:49;96094.03;;;3.07;nan
9261;BME280;4667;42.726;23.252;2023-02-17T03:08:22;96095.44;;;3.13;nan
9261;BME280;4667;42.726;23.252;2023-02-17T03:10:53;96090.56;;;3.07;nan
9261;BME280;4667;42.726;23.252;2023-02-17T03:13:21;96094.53;;;3.01;nan
9261;BME280;4667;42.726;23.252;2023-02-17T03:15:48;96082.88;;;2.97;nan
9261;BME280;4667;42.726;23.252;2023-02-17T03:18:15;96080.66;;;3.07;nan
9261;BME280;4667;42.726;23.252;2023-02-17T03:20:47;96086.16;;;3.11;nan
9261;BME280;4667;42.726;23.252;2023-02-17T03:23:14;96089.19;;;2.66;nan
9261;BME280;4667;42.726;23.252;2023-02-17T03:25:41;96099.75;;;2.80;nan
9261;BME280;4667;42.726;23.252;2023-02-17T03:28:09;96097.81;;;2.63;nan
9261;BME280;4667;42.726;23.252;2023-02-17T03:30:36;96096.88;;;2.51;nan
9261;BME280;4667;42.726;23.252;2023-02-17T03:33:03;96098.91;;;2.45;nan
9261;BME280;4667;42.726;23.252;2023-02-17T03:35:30;96093.06;;;2.17;nan
9261;BME280;4667;42.726;23.252;2023-02-17T03:37:58;96093.25;;;2.29;nan
9261;BME280;4667;42.726;23.252;2023-02-17T03:40:25;96098.09;;;2.27;nan
9261;BME280;4667;42.726;23.252;2023-02-17T03:42:52;96104.09;;;2.24;nan
9261;BME280;4667;42.726;23.252;2023-02-17T03:45:19;96098.25;;;2.22;nan
9261;BME280;4667;42.726;23.252;2023-02-17T03:47:46;96089.41;;;2.04;nan
9261;BME280;4667;42.726;23.252;2023-02-17T03:50:13;96097.69;;;1.86;nan
9261;BME280;4667;42.726;23.252;2023-02-17T03:52:40;96083.63;;;2.11;nan
9261;BME280;4667;42.726;23.252;2023-02-17T03:55:08;96084.56;;;2.15;nan
9261;BME280;4667;42.726;23.252;2023-02-17T03:57:35;96092.72;;;2.10;nan
9261;BME280;4667;42.726;23.252;2023-02-17T04:00:02;96091.78;;;2.06;nan
9261;BME280;4667;42.726;23.252;2023-02-17T04:02:29;96099.16;;;2.00;nan
9261;BME280;4667;42.726;23.252;2023-02-17T04:04:56;96092.47;;;1.72;nan
9261;BME280;4667;42.726;23.252;2023-02-17T04:07:23;96093.31;;;1.90;nan
9261;BME280;4667;42.726;23.252;2023-02-17T04:09:50;96098.53;;;1.95;nan
9261;BME280;4667;42.726;23.252;2023-02-17T04:12:18;96100.75;;;2.01;nan
9261;BME280;4667;42.726;23.252;2023-02-17T04:14:45;96102.50;;;1.67;nan
9261;BME280;4667;42.726;23.252;2023-02-17T04:17:11;96099.47;;;1.99;nan
9261;BME280;4667;42.726;23.252;2023-02-17T04:19:38;96098.66;;;1.90;nan
9261;BME280;4667;42.726;23.252;2023-02-17T04:22:05;96088.44;;;1.92;nan
9261;BME280;4667;42.726;23.252;2023-02-17T04:24:33;96086.91;;;1.99;nan
9261;BME280;4667;42.726;23.252;2023-02-17T04:27:00;96101.94;;;1.87;nan
9261;BME280;4667;42.726;23.252;2023-02-17T04:29:29;96098.31;;;1.83;nan
9261;BME280;4667;42.726;23.252;2023-02-17T04:31:55;96093.97;;;1.95;nan
9261;BME280;4667;42.726;23.252;2023-02-17T04:34:22;96094.41;;;1.89;nan
9261;BME280;4667;42.726;23.252;2023-02-17T04:36:49;96093.13;;;1.86;nan
9261;BME280;4667;42.726;23.252;2023-02-17T04:39:16;96097.09;;;1.89;nan
9261;BME280;4667;42.726;23.252;2023-02-17T04:41:43;96097.38;;;1.87;nan
9261;BME280;4667;42.726;23.252;2023-02-17T04:44:09;96083.97;;;1.70;nan
9261;BME280;4667;42.726;23.252;2023-02-17T04:46:38;96103.22;;;1.89;nan
9261;BME280;4667;42.726;23.252;2023-02-17T04:49:04;96104.47;;;1.92;nan
9261;BME280;4667;42.726;23.252;2023-02-17T04:51:31;96094.06;;;1.82;nan
9261;BME280;4667;42.726;23.252;2023-02-17T04:53:58;96093.47;;;1.93;nan
9261;BME280;4667;42.726;23.252;2023-02-17T04:56:25;96081.72;;;2.03;nan
9261;BME280;4667;42.726;23.252;2023-02-17T04:58:52;96102.47;;;2.06;nan
9261;BME280;4667;42.726;23.252;2023-02-17T05:01:18;96085.97;;;2.04;nan
9261;BME280;4667;42.726;23.252;2023-02-17T05:03:46;96095.41;;;2.01;nan
9261;BME280;4667;42.726;23.252;2023-02-17T05:06:13;96091.94;;;2.10;nan
9261;BME280;4667;42.726;23.252;2023-02-17T05:08:40;96102.97;;;2.08;nan
9261;BME280;4667;42.726;23.252;2023-02-17T05:11:07;96117.25;;;2.12;nan
9261;BME280;4667;42.726;23.252;2023-02-17T05:13:34;96123.56;;;2.16;nan
9261;BME280;4667;42.726;23.252;2023-02-17T05:16:01;96121.66;;;2.17;nan
9261;BME280;4667;42.726;23.252;2023-02-17T05:18:27;96127.78;;;2.09;nan
9261;BME280;4667;42.726;23.252;2023-02-17T05:20:55;96144.53;;;1.92;nan
9261;BME280;4667;42.726;23.252;2023-02-17T05:23:24;96140.88;;;2.19;nan
9261;BME280;4667;42.726;23.252;2023-02-17T05:25:51;96137.84;;;2.12;nan
9261;BME280;4667;42.726;23.252;2023-02-17T05:28:19;96133.78;;;2.14;nan
9261;BME280;4667;42.726;23.252;2023-02-17T05:30:47;96143.16;;;2.03;nan
9261;BME280;4667;42.726;23.252;2023-02-17T05:33:14;96145.44;;;1.79;nan
9261;BME280;4667;42.726;23.252;2023-02-17T05:35:41;96141.28;;;2.03;nan
9261;BME280;4667;42.726;23.252;2023-02-17T05:38:09;96148.78;;;1.93;nan
9261;BME280;4667;42.726;23.252;2023-02-17T05:40:36;96146.97;;;2.11;nan
9261;BME280;4667;42.726;23.252;2023-02-17T05:43:02;96150.63;;;2.23;nan
9261;BME280;4667;42.726;23.252;2023-02-17T05:45:29;96154.22;;;2.27;nan
9261;BME280;4667;42.726;23.252;2023-02-17T05:47:56;96154.44;;;2.39;nan
9261;BME280;4667;42.726;23.252;2023-02-17T05:50:23;96153.84;;;2.60;nan
9261;BME280;4667;42.726;23.252;2023-02-17T05:52:49;96154.31;;;2.62;nan
9261;BME280;4667;42.726;23.252;2023-02-17T05:55:18;96150.25;;;2.73;nan
9261;BME280;4667;42.726;23.252;2023-02-17T05:57:46;96162.03;;;2.89;nan
9261;BME280;4667;42.726;23.252;2023-02-17T06:00:14;96149.78;;;2.97;nan
9261;BME280;4667;42.726;23.252;2023-02-17T06:02:41;96156.38;;;2.99;nan
9261;BME280;4667;42.726;23.252;2023-02-17T06:05:08;96156.38;;;2.82;nan
9261;BME280;4667;42.726;23.252;2023-02-17T06:07:35;96147.91;;;2.97;nan
9261;BME280;4667;42.726;23.252;2023-02-17T06:10:02;96150.84;;;3.04;nan
9261;BME280;4667;42.726;23.252;2023-02-17T06:12:30;96154.47;;;3.25;nan
9261;BME280;4667;42.726;23.252;2023-02-17T06:14:57;96154.88;;;3.62;nan
9261;BME280;4667;42.726;23.252;2023-02-17T06:17:24;96157.34;;;3.76;nan
9261;BME280;4667;42.726;23.252;2023-02-17T06:19:51;96156.88;;;3.82;nan
9261;BME280;4667;42.726;23.252;2023-02-17T06:22:17;96161.34;;;4.07;nan
9261;BME280;4667;42.726;23.252;2023-02-17T06:24:44;96159.69;;;4.24;nan
9261;BME280;4667;42.726;23.252;2023-02-17T06:27:11;96155.38;;;4.40;nan
9261;BME280;4667;42.726;23.252;2023-02-17T06:29:39;96161.19;;;4.42;nan
9261;BME280;4667;42.726;23.252;2023-02-17T06:32:06;96162.84;;;4.55;nan
9261;BME280;4667;42.726;23.252;2023-02-17T06:34:33;96165.34;;;4.60;nan
9261;BME280;4667;42.726;23.252;2023-02-17T06:36:59;96161.31;;;4.75;nan
9261;BME280;4667;42.726;23.252;2023-02-17T06:39:26;96161.56;;;4.82;nan
9261;BME280;4667;42.726;23.252;2023-02-17T06:41:53;96167.84;;;4.86;nan
9261;BME280;4667;42.726;23.252;2023-02-17T06:44:20;96175.78;;;5.03;nan
9261;BME280;4667;42.726;23.252;2023-02-17T06:46:48;96174.16;;;5.11;nan
9261;BME280;4667;42.726;23.252;2023-02-17T06:49:15;96171.72;;;5.18;nan
9261;BME280;4667;42.726;23.252;2023-02-17T06:51:41;96182.53;;;5.30;nan
9261;BME280;4667;42.726;23.252;2023-02-17T06:54:08;96180.25;;;5.53;nan
9261;BME280;4667;42.726;23.252;2023-02-17T06:56:35;96172.94;;;5.41;nan
9261;BME280;4667;42.726;23.252;2023-02-17T06:59:04;96181.22;;;5.69;nan
9261;BME280;4667;42.726;23.252;2023-02-17T07:01:31;96169.06;;;5.84;nan
9261;BME280;4667;42.726;23.252;2023-02-17T07:03:59;96178.06;;;6.00;nan
9261;BME280;4667;42.726;23.252;2023-02-17T07:06:26;96173.34;;;6.09;nan
9261;BME280;4667;42.726;23.252;2023-02-17T07:09:03;96164.88;;;6.19;nan
9261;BME280;4667;42.726;23.252;2023-02-17T07:11:29;96173.94;;;6.14;nan
9261;BME280;4667;42.726;23.252;2023-02-17T07:13:57;96169.25;;;6.48;nan
9261;BME280;4667;42.726;23.252;2023-02-17T07:16:24;96177.09;;;6.65;nan
9261;BME280;4667;42.726;23.252;2023-02-17T07:18:51;96180.78;;;6.85;nan
9261;BME280;4667;42.726;23.252;2023-02-17T07:21:19;96168.00;;;7.10;nan
9261;BME280;4667;42.726;23.252;2023-02-17T07:23:46;96168.47;;;7.39;nan
9261;BME280;4667;42.726;23.252;2023-02-17T07:26:13;96173.75;;;8.07;nan
9261;BME280;4667;42.726;23.252;2023-02-17T07:28:43;96175.88;;;8.61;nan
9261;BME280;4667;42.726;23.252;2023-02-17T07:31:11;96174.81;;;9.00;nan
9261;BME280;4667;42.726;23.252;2023-02-17T07:33:39;96173.97;;;9.51;nan
9261;BME280;4667;42.726;23.252;2023-02-17T07:36:09;96166.75;;;10.42;nan
9261;BME280;4667;42.726;23.252;2023-02-17T07:38:38;96183.50;;;10.48;nan
9261;BME280;4667;42.726;23.252;2023-02-17T07:41:06;96179.25;;;10.99;nan
9261;BME280;4667;42.726;23.252;2023-02-17T07:43:34;96177.00;;;11.35;nan
9261;BME280;4667;42.726;23.252;2023-02-17T07:46:01;96179.97;;;11.56;nan
9261;BME280;4667;42.726;23.252;2023-02-17T07:48:28;96175.25;;;11.79;nan
9261;BME280;4667;42.726;23.252;2023-02-17T07:50:55;96178.16;;;11.97;nan
9261;BME280;4667;42.726;23.252;2023-02-17T07:53:22;96165.31;;;11.94;nan
9261;BME280;4667;42.726;23.252;2023-02-17T07:55:50;96172.19;;;12.21;nan
9261;BME280;4667;42.726;23.252;2023-02-17T07:58:17;96176.66;;;12.91;nan
9261;BME280;4667;42.726;23.252;2023-02-17T08:00:44;96175.41;;;13.40;nan
9261;BME280;4667;42.726;23.252;2023-02-17T08:03:10;96162.81;;;14.04;nan
9261;BME280;4667;42.726;23.252;2023-02-17T08:05:38;96167.97;;;14.41;nan
9261;BME280;4667;42.726;23.252;2023-02-17T08:08:06;96166.34;;;15.15;nan
9261;BME280;4667;42.726;23.252;2023-02-17T08:10:52;96168.03;;;15.96;nan
9261;BME280;4667;42.726;23.252;2023-02-17T08:13:36;96155.06;;;16.14;nan
9261;BME280;4667;42.726;23.252;2023-02-17T08:16:03;96163.66;;;16.71;nan
9261;BME280;4667;42.726;23.252;2023-02-17T08:18:30;96162.13;;;17.11;nan
9261;BME280;4667;42.726;23.252;2023-02-17T08:20:57;96155.88;;;17.48;nan
9261;BME280;4667;42.726;23.252;2023-02-17T08:23:24;96159.03;;;17.05;nan
9261;BME280;4667;42.726;23.252;2023-02-17T08:25:52;96156.72;;;17.41;nan
9261;BME280;4667;42.726;23.252;2023-02-17T08:28:18;96157.69;;;17.62;nan
9261;BME280;4667;42.726;23.252;2023-02-17T08:30:45;96152.63;;;17.90;nan
9261;BME280;4667;42.726;23.252;2023-02-17T08:33:12;96143.56;;;18.24;nan
9261;BME280;4667;42.726;23.252;2023-02-17T08:35:42;96153.81;;;18.73;nan
9261;BME280;4667;42.726;23.252;2023-02-17T08:38:09;96145.34;;;18.64;nan
9261;BME280;4667;42.726;23.252;2023-02-17T08:40:36;96151.25;;;18.86;nan
9261;BME280;4667;42.726;23.252;2023-02-17T08:43:06;96144.41;;;18.71;nan
9261;BME280;4667;42.726;23.252;2023-02-17T08:45:32;96146.22;;;18.01;nan
9261;BME280;4667;42.726;23.252;2023-02-17T08:48:01;96147.03;;;18.28;nan
9261;BME280;4667;42.726;23.252;2023-02-17T08:50:28;96153.03;;;18.46;nan
9261;BME280;4667;42.726;23.252;2023-02-17T08:52:55;96155.94;;;19.09;nan
9261;BME280;4667;42.726;23.252;2023-02-17T08:55:22;96151.44;;;18.99;nan
9261;BME280;4667;42.726;23.252;2023-02-17T08:57:49;96152.50;;;18.82;nan
9261;BME280;4667;42.726;23.252;2023-02-17T09:00:17;96151.91;;;18.70;nan
9261;BME280;4667;42.726;23.252;2023-02-17T09:02:44;96148.13;;;18.61;nan
9261;BME280;4667;42.726;23.252;2023-02-17T09:05:12;96154.22;;;18.45;nan
9261;BME280;4667;42.726;23.252;2023-02-17T09:07:39;96142.56;;;18.38;nan
9261;BME280;4667;42.726;23.252;2023-02-17T09:10:08;96137.69;;;18.49;nan
9261;BME280;4667;42.726;23.252;2023-02-17T09:12:36;96138.53;;;18.46;nan
9261;BME280;4667;42.726;23.252;2023-02-17T09:15:03;96143.94;;;18.26;nan
9261;BME280;4667;42.726;23.252;2023-02-17T09:17:31;96147.66;;;18.39;nan
9261;BME280;4667;42.726;23.252;2023-02-17T09:19:58;96141.75;;;18.41;nan
9261;BME280;4667;42.726;23.252;2023-02-17T09:22:25;96138.22;;;18.67;nan
9261;BME280;4667;42.726;23.252;2023-02-17T09:24:52;96137.34;;;17.59;nan
9261;BME280;4667;42.726;23.252;2023-02-17T09:27:19;96136.41;;;18.30;nan
9261;BME280;4667;42.726;23.252;2023-02-17T09:29:46;96141.75;;;17.83;nan
9261;BME280;4667;42.726;23.252;2023-02-17T09:32:13;96143.31;;;18.15;nan
9261;BME280;4667;42.726;23.252;2023-02-17T09:34:41;96140.91;;;18.44;nan
9261;BME280;4667;42.726;23.252;2023-02-17T09:37:14;96126.78;;;18.45;nan
9261;BME280;4667;42.726;23.252;2023-02-17T09:39:42;96134.53;;;19.00;nan
9261;BME280;4667;42.726;23.252;2023-02-17T09:42:16;96130.94;;;18.57;nan
9261;BME280;4667;42.726;23.252;2023-02-17T09:44:46;96134.09;;;18.55;nan
9261;BME280;4667;42.726;23.252;2023-02-17T09:47:18;96130.75;;;18.91;nan
9261;BME280;4667;42.726;23.252;2023-02-17T09:49:50;96137.22;;;18.81;nan
9261;BME280;4667;42.726;23.252;2023-02-17T09:52:25;96132.72;;;19.76;nan
9261;BME280;4667;42.726;23.252;2023-02-17T09:55:00;96126.72;;;19.18;nan
9261;BME280;4667;42.726;23.252;2023-02-17T09:57:33;96125.03;;;19.25;nan
9261;BME280;4667;42.726;23.252;2023-02-17T10:00:08;96123.34;;;19.54;nan
9261;BME280;4667;42.726;23.252;2023-02-17T10:02:40;96122.16;;;20.27;nan
9261;BME280;4667;42.726;23.252;2023-02-17T10:05:16;96125.81;;;20.89;nan
9261;BME280;4667;42.726;23.252;2023-02-17T10:07:47;96122.19;;;21.53;nan
9261;BME280;4667;42.726;23.252;2023-02-17T10:10:19;96112.19;;;21.14;nan
9261;BME280;4667;42.726;23.252;2023-02-17T10:12:50;96116.63;;;20.95;nan
9261;BME280;4667;42.726;23.252;2023-02-17T10:15:21;96106.03;;;20.94;nan
9261;BME280;4667;42.726;23.252;2023-02-17T10:17:56;96100.09;;;21.94;nan
9261;BME280;4667;42.726;23.252;2023-02-17T10:20:27;96104.09;;;21.07;nan
9261;BME280;4667;42.726;23.252;2023-02-17T10:23:01;96108.84;;;21.06;nan
9261;BME280;4667;42.726;23.252;2023-02-17T10:25:47;96100.63;;;20.58;nan
9261;BME280;4667;42.726;23.252;2023-02-17T10:28:21;96092.66;;;21.66;nan
9261;BME280;4667;42.726;23.252;2023-02-17T10:30:57;96095.63;;;21.30;nan
9261;BME280;4667;42.726;23.252;2023-02-17T10:33:31;96088.78;;;21.06;nan
9261;BME280;4667;42.726;23.252;2023-02-17T10:36:10;96087.66;;;20.42;nan
9261;BME280;4667;42.726;23.252;2023-02-17T10:38:45;96070.25;;;20.77;nan
9261;BME280;4667;42.726;23.252;2023-02-17T10:41:15;96079.09;;;21.30;nan
9261;BME280;4667;42.726;23.252;2023-02-17T10:43:44;96074.22;;;21.05;nan
9261;BME280;4667;42.726;23.252;2023-02-17T10:46:12;96068.94;;;20.82;nan
9261;BME280;4667;42.726;23.252;2023-02-17T10:48:44;96068.78;;;20.73;nan
9261;BME280;4667;42.726;23.252;2023-02-17T10:51:15;96070.09;;;21.13;nan
9261;BME280;4667;42.726;23.252;2023-02-17T10:53:45;96064.06;;;21.60;nan
9261;BME280;4667;42.726;23.252;2023-02-17T10:56:16;96066.81;;;21.47;nan
9261;BME280;4667;42.726;23.252;2023-02-17T10:58:49;96058.28;;;21.42;nan
9261;BME280;4667;42.726;23.252;2023-02-17T11:01:17;96066.94;;;21.28;nan
9261;BME280;4667;42.726;23.252;2023-02-17T11:03:44;96061.75;;;21.17;nan
9261;BME280;4667;42.726;23.252;2023-02-17T11:06:17;96056.44;;;20.94;nan
9261;BME280;4667;42.726;23.252;2023-02-17T11:08:49;96058.03;;;21.24;nan
9261;BME280;4667;42.726;23.252;2023-02-17T11:11:19;96050.56;;;20.30;nan
9261;BME280;4667;42.726;23.252;2023-02-17T11:14:00;96052.88;;;21.92;nan
9261;BME280;4667;42.726;23.252;2023-02-17T11:16:32;96051.34;;;22.17;nan
9261;BME280;4667;42.726;23.252;2023-02-17T11:19:00;96045.56;;;21.73;nan
9261;BME280;4667;42.726;23.252;2023-02-17T11:21:29;96046.97;;;21.52;nan
9261;BME280;4667;42.726;23.252;2023-02-17T11:23:59;96045.63;;;21.44;nan
9261;BME280;4667;42.726;23.252;2023-02-17T11:26:28;96046.53;;;21.54;nan
9261;BME280;4667;42.726;23.252;2023-02-17T11:29:06;96046.38;;;21.86;nan
9261;BME280;4667;42.726;23.252;2023-02-17T11:31:33;96034.66;;;22.33;nan
9261;BME280;4667;42.726;23.252;2023-02-17T11:34:10;96041.00;;;22.68;nan
9261;BME280;4667;42.726;23.252;2023-02-17T11:36:38;96040.28;;;22.29;nan
9261;BME280;4667;42.726;23.252;2023-02-17T11:39:16;96032.38;;;22.66;nan
9261;BME280;4667;42.726;23.252;2023-02-17T11:41:43;96038.69;;;23.35;nan
9261;BME280;4667;42.726;23.252;2023-02-17T11:44:10;96029.22;;;23.45;nan
9261;BME280;4667;42.726;23.252;2023-02-17T11:46:43;96025.25;;;23.46;nan
9261;BME280;4667;42.726;23.252;2023-02-17T11:52:25;96028.25;;;23.39;nan
9261;BME280;4667;42.726;23.252;2023-02-17T11:55:05;96020.22;;;23.85;nan
9261;BME280;4667;42.726;23.252;2023-02-17T11:57:40;96009.41;;;23.03;nan
9261;BME280;4667;42.726;23.252;2023-02-17T12:00:16;96019.94;;;24.23;nan
9261;BME280;4667;42.726;23.252;2023-02-17T12:02:57;96018.56;;;23.87;nan
9261;BME280;4667;42.726;23.252;2023-02-17T12:05:33;96004.97;;;24.11;nan
9261;BME280;4667;42.726;23.252;2023-02-17T12:08:13;96012.53;;;23.36;nan
9261;BME280;4667;42.726;23.252;2023-02-17T12:10:50;96001.44;;;23.71;nan
9261;BME280;4667;42.726;23.252;2023-02-17T12:20:04;95979.78;;;23.26;nan
9261;BME280;4667;42.726;23.252;2023-02-17T12:34:28;95969.03;;;22.03;nan
9261;BME280;4667;42.726;23.252;2023-02-17T12:36:57;95960.19;;;22.08;nan
9261;BME280;4667;42.726;23.252;2023-02-17T12:39:37;95958.03;;;22.37;nan
9261;BME280;4667;42.726;23.252;2023-02-17T12:42:10;95963.84;;;22.86;nan
9261;BME280;4667;42.726;23.252;2023-02-17T12:44:41;95949.84;;;22.81;nan
9261;BME280;4667;42.726;23.252;2023-02-17T12:47:14;95954.16;;;22.82;nan
9261;BME280;4667;42.726;23.252;2023-02-17T12:49:43;95948.72;;;22.44;nan
9261;BME280;4667;42.726;23.252;2023-02-17T12:52:16;95942.34;;;23.12;nan
9261;BME280;4667;42.726;23.252;2023-02-17T12:54:48;95943.06;;;23.47;nan
9261;BME280;4667;42.726;23.252;2023-02-17T12:57:17;95942.66;;;23.05;nan
9261;BME280;4667;42.726;23.252;2023-02-17T12:59:50;95930.25;;;24.20;nan
9261;BME280;4667;42.726;23.252;2023-02-17T13:02:21;95945.13;;;24.05;nan
9261;BME280;4667;42.726;23.252;2023-02-17T13:04:50;95932.94;;;24.02;nan
9261;BME280;4667;42.726;23.252;2023-02-17T13:07:42;95931.44;;;24.10;nan
9261;BME280;4667;42.726;23.252;2023-02-17T13:10:21;95934.16;;;24.77;nan
9261;BME280;4667;42.726;23.252;2023-02-17T13:12:58;95927.06;;;24.31;nan
9261;BME280;4667;42.726;23.252;2023-02-17T13:15:32;95931.66;;;24.25;nan
9261;BME280;4667;42.726;23.252;2023-02-17T13:18:03;95928.72;;;23.70;nan
9261;BME280;4667;42.726;23.252;2023-02-17T13:20:41;95929.06;;;23.90;nan
9261;BME280;4667;42.726;23.252;2023-02-17T13:23:11;95935.09;;;23.89;nan
9261;BME280;4667;42.726;23.252;2023-02-17T13:25:39;95927.94;;;23.39;nan
9261;BME280;4667;42.726;23.252;2023-02-17T13:28:29;95925.88;;;23.30;nan
9261;BME280;4667;42.726;23.252;2023-02-17T13:31:08;95929.41;;;23.52;nan
9261;BME280;4667;42.726;23.252;2023-02-17T13:33:44;95915.66;;;23.71;nan
9261;BME280;4667;42.726;23.252;2023-02-17T13:36:18;95923.16;;;23.08;nan
9261;BME280;4667;42.726;23.252;2023-02-17T13:38:58;95923.59;;;23.59;nan
9261;BME280;4667;42.726;23.252;2023-02-17T13:41:27;95920.59;;;24.25;nan
9261;BME280;4667;42.726;23.252;2023-02-17T13:43:55;95911.81;;;24.45;nan
9261;BME280;4667;42.726;23.252;2023-02-17T13:46:23;95919.38;;;24.71;nan
9261;BME280;4667;42.726;23.252;2023-02-17T13:49:03;95924.81;;;23.98;nan
9261;BME280;4667;42.726;23.252;2023-02-17T13:51:32;95918.09;;;24.18;nan
9261;BME280;4667;42.726;23.252;2023-02-17T13:54:11;95923.97;;;23.80;nan
9261;BME280;4667;42.726;23.252;2023-02-17T13:56:38;95929.94;;;23.69;nan
9261;BME280;4667;42.726;23.252;2023-02-17T13:59:07;95927.28;;;23.66;nan
9261;BME280;4667;42.726;23.252;2023-02-17T14:01:36;95933.59;;;23.35;nan
9261;BME280;4667;42.726;23.252;2023-02-17T14:04:18;95924.25;;;22.89;nan
9261;BME280;4667;42.726;23.252;2023-02-17T14:06:46;95924.50;;;23.04;nan
9261;BME280;4667;42.726;23.252;2023-02-17T14:09:20;95924.13;;;22.36;nan
9261;BME280;4667;42.726;23.252;2023-02-17T14:11:50;95930.22;;;22.31;nan
9261;BME280;4667;42.726;23.252;2023-02-17T14:14:17;95928.63;;;22.09;nan
9261;BME280;4667;42.726;23.252;2023-02-17T14:16:44;95920.69;;;21.60;nan
9261;BME280;4667;42.726;23.252;2023-02-17T14:19:22;95932.72;;;20.99;nan
9261;BME280;4667;42.726;23.252;2023-02-17T14:21:57;95934.81;;;20.21;nan
9261;BME280;4667;42.726;23.252;2023-02-17T14:24:27;95935.06;;;20.27;nan